createdAt,value
2017-08-30T00:01:10.178Z,4.50
2017-08-30T00:03:36.307Z,4.53
2017-08-30T00:06:02.387Z,5.10
2017-08-30T00:08:28.462Z,4.90
2017-08-30T00:10:54.542Z,4.97
2017-08-30T00:13:20.601Z,5.00
2017-08-30T00:15:46.721Z,4.10
2017-08-30T00:18:12.796Z,5.40
2017-08-30T00:20:38.879Z,4.63
2017-08-30T00:23:05.008Z,4.00
2017-08-30T00:28:35.569Z,4.20
2017-08-30T00:31:01.679Z,4.60
2017-08-30T00:33:27.759Z,5.07
2017-08-30T00:35:53.891Z,4.77
2017-08-30T00:38:19.967Z,5.20
2017-08-30T00:40:46.035Z,4.60
2017-08-30T00:43:12.127Z,5.23
2017-08-30T00:45:38.205Z,4.20
2017-08-30T00:48:04.325Z,4.80
2017-08-30T00:50:30.422Z,4.53
2017-08-30T00:52:56.512Z,4.27
2017-08-30T00:55:22.594Z,4.20
2017-08-30T00:57:48.707Z,3.67
2017-08-30T01:00:14.775Z,4.30
2017-08-30T01:02:40.834Z,5.23
2017-08-30T01:05:06.948Z,4.10
2017-08-30T01:07:33.034Z,3.83
2017-08-30T01:09:59.100Z,4.23
2017-08-30T01:12:25.184Z,3.70
2017-08-30T01:14:51.261Z,4.30
2017-08-30T01:17:17.386Z,3.77
2017-08-30T01:19:43.485Z,4.13
2017-08-30T01:22:09.582Z,4.00
2017-08-30T01:24:35.676Z,4.30
2017-08-30T01:27:01.783Z,3.50
2017-08-30T01:29:27.836Z,3.80
2017-08-30T01:31:54.047Z,4.80
2017-08-30T01:34:20.147Z,4.73
2017-08-30T01:36:46.236Z,3.50
2017-08-30T01:39:12.355Z,3.50
2017-08-30T01:41:39.443Z,3.93
2017-08-30T01:44:05.533Z,3.43
2017-08-30T01:46:31.604Z,4.33
2017-08-30T01:48:57.684Z,4.70
2017-08-30T01:51:23.745Z,4.97
2017-08-30T01:53:49.825Z,4.43
2017-08-30T01:56:15.916Z,4.77
2017-08-30T01:58:41.995Z,3.60
2017-08-30T02:01:08.082Z,4.30
2017-08-30T02:03:34.177Z,4.00
2017-08-30T02:06:00.267Z,4.70
2017-08-30T02:08:26.397Z,3.87
2017-08-30T02:10:52.470Z,3.83
2017-08-30T02:13:18.519Z,4.53
2017-08-30T02:15:44.629Z,4.27
2017-08-30T02:18:10.705Z,4.00
2017-08-30T02:20:36.783Z,3.83
2017-08-30T02:23:02.867Z,4.43
2017-08-30T02:25:28.921Z,4.27
2017-08-30T02:27:55.028Z,4.50
2017-08-30T02:30:21.105Z,4.40
2017-08-30T02:32:47.174Z,3.83
2017-08-30T02:35:13.225Z,3.97
2017-08-30T02:37:39.333Z,3.80
2017-08-30T02:40:05.417Z,4.37
2017-08-30T02:42:31.517Z,4.00
2017-08-30T02:44:57.675Z,4.67
2017-08-30T02:47:23.770Z,4.43
2017-08-30T02:49:49.907Z,4.60
2017-08-30T02:52:16.001Z,4.77
2017-08-30T02:54:42.078Z,5.60
2017-08-30T02:57:08.314Z,3.97
2017-08-30T02:59:34.363Z,3.83
2017-08-30T03:02:00.416Z,4.00
2017-08-30T03:04:26.519Z,4.27
2017-08-30T03:06:52.617Z,3.80
2017-08-30T03:09:18.727Z,3.70
2017-08-30T03:11:44.818Z,3.73
2017-08-30T03:14:10.893Z,4.07
2017-08-30T03:16:37.696Z,3.80
2017-08-30T03:19:03.779Z,3.47
2017-08-30T03:21:29.864Z,3.40
2017-08-30T03:23:55.938Z,3.37
2017-08-30T03:26:22.006Z,4.03
2017-08-30T03:28:48.084Z,4.40
2017-08-30T03:31:14.159Z,4.73
2017-08-30T03:33:40.241Z,4.00
2017-08-30T03:36:06.328Z,3.60
2017-08-30T03:38:32.431Z,4.57
2017-08-30T03:40:58.512Z,3.70
2017-08-30T03:43:24.596Z,4.00
2017-08-30T03:45:50.675Z,3.43
2017-08-30T03:48:16.814Z,4.30
2017-08-30T03:50:42.898Z,4.37
2017-08-30T03:53:08.966Z,3.67
2017-08-30T03:55:35.069Z,4.30
2017-08-30T03:58:01.468Z,4.03
2017-08-30T04:00:27.594Z,3.43
2017-08-30T04:02:53.673Z,4.27
2017-08-30T04:05:19.795Z,4.17
2017-08-30T04:07:45.872Z,4.23
2017-08-30T04:10:11.952Z,3.40
2017-08-30T04:12:38.007Z,3.60
2017-08-30T04:15:04.115Z,4.10
2017-08-30T04:17:30.207Z,3.70
2017-08-30T04:19:56.266Z,4.10
2017-08-30T04:22:22.383Z,4.10
2017-08-30T04:24:48.477Z,3.27
2017-08-30T04:27:14.536Z,4.17
2017-08-30T04:29:40.655Z,4.13
2017-08-30T04:32:06.742Z,4.17
2017-08-30T04:34:32.818Z,4.03
2017-08-30T04:36:58.922Z,4.50
2017-08-30T04:39:24.980Z,3.50
2017-08-30T04:41:51.087Z,3.40
2017-08-30T04:44:17.147Z,3.83
2017-08-30T04:46:43.272Z,3.80
2017-08-30T04:49:09.362Z,3.57
2017-08-30T04:51:35.469Z,3.93
2017-08-30T04:54:01.599Z,3.23
2017-08-30T04:56:27.692Z,3.70
2017-08-30T04:58:53.780Z,4.50
2017-08-30T05:01:19.988Z,3.93
2017-08-30T05:03:46.102Z,3.60
2017-08-30T05:06:12.251Z,3.43
2017-08-30T05:08:38.322Z,4.30
2017-08-30T05:11:04.388Z,4.10
2017-08-30T05:13:30.534Z,4.70
2017-08-30T05:15:56.644Z,4.30
2017-08-30T05:18:22.786Z,3.30
2017-08-30T05:20:48.888Z,4.33
2017-08-30T05:23:15.011Z,3.33
2017-08-30T05:25:41.135Z,3.43
2017-08-30T05:28:07.282Z,3.67
2017-08-30T05:30:33.387Z,4.20
2017-08-30T05:32:59.483Z,3.73
2017-08-30T05:35:25.540Z,5.10
2017-08-30T05:37:51.665Z,4.10
2017-08-30T05:40:17.773Z,4.00
2017-08-30T05:42:43.844Z,3.77
2017-08-30T05:45:09.990Z,4.00
2017-08-30T05:47:36.068Z,5.07
2017-08-30T05:50:02.192Z,4.43
2017-08-30T05:52:28.328Z,4.00
2017-08-30T05:54:54.451Z,4.53
2017-08-30T05:57:20.552Z,3.87
2017-08-30T05:59:46.703Z,3.83
2017-08-30T06:02:12.843Z,3.63
2017-08-30T06:04:38.920Z,4.17
2017-08-30T06:07:05.023Z,3.50
2017-08-30T06:09:31.161Z,4.67
2017-08-30T06:11:57.264Z,5.00
2017-08-30T06:14:23.362Z,4.20
2017-08-30T06:16:49.442Z,3.30
2017-08-30T06:19:15.544Z,3.93
2017-08-30T06:21:41.717Z,4.03
2017-08-30T06:24:07.867Z,3.30
2017-08-30T06:26:33.946Z,4.60
2017-08-30T06:29:00.122Z,4.10
2017-08-30T06:31:26.239Z,3.30
2017-08-30T06:33:52.358Z,4.20
2017-08-30T06:36:18.496Z,4.37
2017-08-30T06:38:44.556Z,3.70
2017-08-30T06:41:10.646Z,3.77
2017-08-30T06:43:36.744Z,3.77
2017-08-30T06:46:02.814Z,4.40
2017-08-30T06:48:28.972Z,4.10
2017-08-30T06:50:55.066Z,4.13
2017-08-30T06:53:22.111Z,3.30
2017-08-30T06:55:48.193Z,3.40
2017-08-30T06:58:14.264Z,4.30
2017-08-30T07:00:40.377Z,4.00
2017-08-30T07:03:06.443Z,3.90
2017-08-30T07:05:32.545Z,4.00
2017-08-30T07:07:58.646Z,4.10
2017-08-30T07:10:24.921Z,2.97
2017-08-30T07:12:50.986Z,3.47
2017-08-30T07:15:17.067Z,4.60
2017-08-30T07:17:43.202Z,3.37
2017-08-30T07:20:09.271Z,4.53
2017-08-30T07:22:35.338Z,3.20
2017-08-30T07:25:01.417Z,3.43
2017-08-30T07:27:27.493Z,3.40
2017-08-30T07:29:53.581Z,3.57
2017-08-30T07:32:19.743Z,3.93
2017-08-30T07:34:45.838Z,3.63
2017-08-30T07:37:11.942Z,3.23
2017-08-30T07:39:38.038Z,4.00
2017-08-30T07:42:04.117Z,3.30
2017-08-30T07:44:30.208Z,2.90
2017-08-30T07:46:56.363Z,3.10
2017-08-30T07:49:22.432Z,2.97
2017-08-30T07:51:48.524Z,3.30
2017-08-30T07:54:14.649Z,3.83
2017-08-30T07:56:40.745Z,3.37
2017-08-30T07:59:06.839Z,3.27
2017-08-30T08:01:32.956Z,3.40
2017-08-30T08:03:59.330Z,3.70
2017-08-30T08:06:25.423Z,3.80
2017-08-30T08:08:51.515Z,2.40
2017-08-30T08:11:17.601Z,3.07
2017-08-30T08:13:43.695Z,3.10
2017-08-30T08:16:09.834Z,3.07
2017-08-30T08:18:35.919Z,3.03
2017-08-30T08:21:02.045Z,3.70
2017-08-30T08:23:28.166Z,3.50
2017-08-30T08:25:54.214Z,3.90
2017-08-30T08:28:20.333Z,3.47
2017-08-30T08:30:46.399Z,3.60
2017-08-30T08:33:12.473Z,3.40
2017-08-30T08:35:38.572Z,3.90
2017-08-30T08:38:04.635Z,3.50
2017-08-30T08:40:30.755Z,3.10
2017-08-30T08:42:56.887Z,2.93
2017-08-30T08:45:22.987Z,2.73
2017-08-30T08:47:49.054Z,3.00
2017-08-30T08:50:15.137Z,3.47
2017-08-30T08:52:41.259Z,3.20
2017-08-30T08:55:07.347Z,3.20
2017-08-30T08:57:33.429Z,3.53
2017-08-30T08:59:59.540Z,3.13
2017-08-30T09:02:25.665Z,3.90
2017-08-30T09:04:51.704Z,2.70
2017-08-30T09:07:17.815Z,2.60
2017-08-30T09:09:43.901Z,3.27
2017-08-30T09:12:10.015Z,3.10
2017-08-30T09:14:36.075Z,3.13
2017-08-30T09:17:02.138Z,3.20
2017-08-30T09:19:28.260Z,3.13
2017-08-30T09:21:54.511Z,2.77
2017-08-30T09:24:20.598Z,2.93
2017-08-30T09:26:46.702Z,3.20
2017-08-30T09:29:12.797Z,3.27
2017-08-30T09:31:38.879Z,3.07
2017-08-30T09:34:04.980Z,3.13
2017-08-30T09:36:31.071Z,3.57
2017-08-30T09:38:57.175Z,2.97
2017-08-30T09:41:23.285Z,2.97
2017-08-30T09:43:49.379Z,2.50
2017-08-30T09:46:15.464Z,3.30
2017-08-30T09:48:41.587Z,3.77
2017-08-30T09:51:07.717Z,3.10
2017-08-30T09:53:33.800Z,2.47
2017-08-30T09:55:59.900Z,3.57
2017-08-30T09:58:26.029Z,2.73
2017-08-30T10:00:52.083Z,3.70
2017-08-30T10:03:18.154Z,3.03
2017-08-30T10:05:44.269Z,3.23
2017-08-30T10:08:10.338Z,3.20
2017-08-30T10:10:36.429Z,3.33
2017-08-30T10:13:02.545Z,3.13
2017-08-30T10:15:28.645Z,3.80
2017-08-30T10:17:54.704Z,4.47
2017-08-30T10:20:20.913Z,3.60
2017-08-30T10:22:47.008Z,3.53
2017-08-30T10:25:13.124Z,3.17
2017-08-30T10:27:39.250Z,3.43
2017-08-30T10:30:05.338Z,2.77
2017-08-30T10:32:31.430Z,4.33
2017-08-30T10:34:57.512Z,3.20
2017-08-30T10:37:23.579Z,3.00
2017-08-30T10:39:49.722Z,3.37
2017-08-30T10:42:15.809Z,3.77
2017-08-30T10:44:41.875Z,3.97
2017-08-30T10:47:07.986Z,2.83
2017-08-30T10:49:34.091Z,4.30
2017-08-30T10:52:00.170Z,3.00
2017-08-30T10:54:26.260Z,3.60
2017-08-30T10:56:52.358Z,3.23
2017-08-30T10:59:18.480Z,3.20
2017-08-30T11:01:44.590Z,3.10
2017-08-30T11:04:10.694Z,4.27
2017-08-30T11:06:36.765Z,4.70
2017-08-30T11:09:02.851Z,4.13
2017-08-30T11:11:28.959Z,4.10
2017-08-30T11:13:55.077Z,4.33
2017-08-30T11:16:21.163Z,4.00
2017-08-30T11:18:47.244Z,3.77
2017-08-30T11:21:13.326Z,3.63
2017-08-30T11:23:39.445Z,3.70
2017-08-30T11:26:05.539Z,3.97
2017-08-30T11:28:31.664Z,4.47
2017-08-30T11:30:57.793Z,3.40
2017-08-30T11:33:23.891Z,3.90
2017-08-30T11:35:50.044Z,3.93
2017-08-30T11:38:16.134Z,3.97
2017-08-30T11:40:42.199Z,4.10
2017-08-30T11:43:08.279Z,3.33
2017-08-30T11:45:34.349Z,3.17
2017-08-30T11:48:00.424Z,3.90
2017-08-30T11:50:26.536Z,3.60
2017-08-30T11:52:52.622Z,4.10
2017-08-30T11:55:18.713Z,3.30
2017-08-30T11:57:44.873Z,3.00
2017-08-30T12:00:10.978Z,3.50
2017-08-30T12:02:37.048Z,2.70
2017-08-30T12:05:03.240Z,2.93
2017-08-30T12:07:29.318Z,2.30
2017-08-30T12:09:55.392Z,2.40
2017-08-30T12:12:22.584Z,3.00
2017-08-30T12:14:48.713Z,2.90
2017-08-30T12:17:14.765Z,3.17
2017-08-30T12:19:40.894Z,2.23
2017-08-30T12:22:07.037Z,2.30
2017-08-30T12:24:33.144Z,2.33
2017-08-30T12:26:59.316Z,2.00
2017-08-30T12:29:25.439Z,2.10
2017-08-30T12:31:58.439Z,2.87
2017-08-30T12:34:24.539Z,2.77
2017-08-30T12:36:56.731Z,2.67
2017-08-30T12:39:29.117Z,2.37
2017-08-30T12:41:55.185Z,2.60
2017-08-30T12:44:21.299Z,2.30
2017-08-30T12:46:47.398Z,2.80
2017-08-30T12:49:13.501Z,2.50
2017-08-30T12:51:39.627Z,3.10
2017-08-30T12:54:05.676Z,2.37
2017-08-30T12:56:31.800Z,2.60
2017-08-30T12:58:57.975Z,3.10
2017-08-30T13:01:25.064Z,2.70
2017-08-30T13:03:51.169Z,2.50
2017-08-30T13:06:17.323Z,2.73
2017-08-30T13:08:43.460Z,2.47
2017-08-30T13:11:09.521Z,2.90
2017-08-30T13:13:35.995Z,2.57
2017-08-30T13:16:02.109Z,2.30
2017-08-30T13:18:28.186Z,2.73
2017-08-30T13:20:54.275Z,2.77
2017-08-30T13:23:20.327Z,1.77
2017-08-30T13:25:46.393Z,2.17
2017-08-30T13:28:12.502Z,2.27
2017-08-30T13:30:39.508Z,2.30
2017-08-30T13:33:05.609Z,2.60
2017-08-30T13:35:32.021Z,2.70
2017-08-30T13:38:05.237Z,2.43
2017-08-30T13:40:31.318Z,2.57
2017-08-30T13:42:57.368Z,2.90
2017-08-30T13:45:23.479Z,2.20
2017-08-30T13:47:49.624Z,2.80
2017-08-30T13:50:15.687Z,2.10
2017-08-30T13:52:41.876Z,2.87
2017-08-30T13:55:08.056Z,2.77
2017-08-30T13:57:34.178Z,2.27
2017-08-30T14:00:00.593Z,2.70
2017-08-30T14:02:26.702Z,2.77
2017-08-30T14:04:52.777Z,2.70
2017-08-30T14:07:18.895Z,2.20
2017-08-30T14:09:44.979Z,2.50
2017-08-30T14:12:11.066Z,2.03
2017-08-30T14:14:37.171Z,2.40
2017-08-30T14:17:03.253Z,2.80
2017-08-30T14:19:29.371Z,2.00
2017-08-30T14:21:55.497Z,2.53
2017-08-30T14:24:21.563Z,3.07
2017-08-30T14:26:47.641Z,2.60
2017-08-30T14:29:13.741Z,3.07
2017-08-30T14:31:46.804Z,2.80
2017-08-30T14:34:12.910Z,2.37
2017-08-30T14:36:39.015Z,2.80
2017-08-30T14:39:05.076Z,3.10
2017-08-30T14:41:31.180Z,3.23
2017-08-30T14:43:57.290Z,2.40
2017-08-30T14:46:30.505Z,3.47
2017-08-30T14:48:56.627Z,2.97
2017-08-30T14:51:22.723Z,3.47
2017-08-30T14:53:48.786Z,3.10
2017-08-30T14:56:14.913Z,2.73
2017-08-30T14:58:41.366Z,1.93
2017-08-30T15:01:07.471Z,2.70
2017-08-30T15:03:33.555Z,2.50
2017-08-30T15:05:59.661Z,2.53
2017-08-30T15:08:26.719Z,2.40
2017-08-30T15:10:52.891Z,2.90
2017-08-30T15:13:19.032Z,2.30
2017-08-30T15:15:45.387Z,2.63
2017-08-30T15:18:11.460Z,2.63
2017-08-30T15:20:37.605Z,2.37
2017-08-30T15:23:03.705Z,2.10
2017-08-30T15:25:29.841Z,2.67
2017-08-30T15:27:55.951Z,3.10
2017-08-30T15:30:22.028Z,3.40
2017-08-30T15:32:48.159Z,3.00
2017-08-30T15:35:14.253Z,2.80
2017-08-30T15:37:40.613Z,3.60
2017-08-30T15:40:08.064Z,3.10
2017-08-30T15:42:34.195Z,3.23
2017-08-30T15:45:00.264Z,2.70
2017-08-30T15:47:26.339Z,3.73
2017-08-30T15:49:53.457Z,3.20
2017-08-30T15:52:19.560Z,3.90
2017-08-30T15:54:45.638Z,3.53
2017-08-30T15:57:11.756Z,2.97
2017-08-30T15:59:37.854Z,3.80
2017-08-30T16:02:03.982Z,3.20
2017-08-30T16:04:30.118Z,3.27
2017-08-30T16:06:56.228Z,3.43
2017-08-30T16:09:23.254Z,3.77
2017-08-30T16:11:49.390Z,5.83
2017-08-30T16:14:15.493Z,4.40
2017-08-30T16:16:41.592Z,3.40
2017-08-30T16:19:07.709Z,4.07
2017-08-30T16:21:33.783Z,3.67
2017-08-30T16:23:59.904Z,3.63
2017-08-30T16:26:26.039Z,3.67
2017-08-30T16:28:52.279Z,3.70
2017-08-30T16:31:18.390Z,4.40
2017-08-30T16:33:44.484Z,4.30
2017-08-30T16:36:11.424Z,3.67
2017-08-30T16:38:37.545Z,3.70
2017-08-30T16:41:03.657Z,3.60
2017-08-30T16:43:29.758Z,4.20
2017-08-30T16:45:55.856Z,4.00
2017-08-30T16:48:21.964Z,3.83
2017-08-30T16:50:48.092Z,4.30
2017-08-30T16:53:14.276Z,3.27
2017-08-30T16:55:40.412Z,3.70
2017-08-30T16:58:06.566Z,4.13
2017-08-30T17:00:33.434Z,4.43
2017-08-30T17:02:59.940Z,4.43
2017-08-30T17:05:26.029Z,4.60
2017-08-30T17:07:52.118Z,5.00
2017-08-30T17:10:18.241Z,4.60
2017-08-30T17:12:44.409Z,4.20
2017-08-30T17:15:10.504Z,4.40
2017-08-30T17:17:36.613Z,4.57
2017-08-30T17:20:02.685Z,4.53
2017-08-30T17:22:29.021Z,3.97
2017-08-30T17:24:55.107Z,4.50
2017-08-30T17:27:21.214Z,4.60
2017-08-30T17:29:47.735Z,5.20
2017-08-30T17:32:13.847Z,4.50
2017-08-30T17:34:39.939Z,4.97
2017-08-30T17:37:06.064Z,4.60
2017-08-30T17:39:32.328Z,6.30
2017-08-30T17:41:58.486Z,4.63
2017-08-30T17:44:25.247Z,5.13
2017-08-30T17:46:51.352Z,5.77
2017-08-30T17:49:18.386Z,5.17
2017-08-30T17:51:44.529Z,4.47
2017-08-30T17:54:10.711Z,4.90
2017-08-30T17:56:36.820Z,5.13
2017-08-30T17:59:02.918Z,5.67
2017-08-30T18:01:29.398Z,5.77
2017-08-30T18:03:55.639Z,4.33
2017-08-30T18:06:21.740Z,5.00
2017-08-30T18:08:48.101Z,5.30
2017-08-30T18:11:14.198Z,5.07
2017-08-30T18:13:40.287Z,4.93
2017-08-30T18:16:06.381Z,5.67
2017-08-30T18:18:32.532Z,4.97
2017-08-30T18:20:58.667Z,5.50
2017-08-30T18:23:24.813Z,5.70
2017-08-30T18:25:51.097Z,4.90
2017-08-30T18:28:17.225Z,6.30
2017-08-30T18:30:43.352Z,5.23
2017-08-30T18:33:09.573Z,5.70
2017-08-30T18:35:35.657Z,7.03
2017-08-30T18:38:01.743Z,5.90
2017-08-30T18:40:28.975Z,5.97
2017-08-30T18:42:55.053Z,6.23
2017-08-30T18:45:21.145Z,5.30
2017-08-30T18:47:47.315Z,6.07
2017-08-30T18:50:13.431Z,7.60
2017-08-30T18:52:39.515Z,5.77
2017-08-30T18:55:05.682Z,6.70
2017-08-30T18:57:31.775Z,6.03
2017-08-30T18:59:57.882Z,6.77
2017-08-30T19:02:24.061Z,5.40
2017-08-30T19:04:50.182Z,6.83
2017-08-30T19:07:16.299Z,5.03
2017-08-30T19:09:42.379Z,5.30
2017-08-30T19:12:08.603Z,5.43
2017-08-30T19:14:34.706Z,6.10
2017-08-30T19:17:00.826Z,5.80
2017-08-30T19:19:26.974Z,5.90
2017-08-30T19:21:53.097Z,6.23
2017-08-30T19:24:19.237Z,6.47
2017-08-30T19:26:45.439Z,6.13
2017-08-30T19:29:11.600Z,5.87
2017-08-30T19:31:37.711Z,5.97
2017-08-30T19:34:04.073Z,5.80
2017-08-30T19:36:30.174Z,4.80
2017-08-30T19:38:56.273Z,5.80
2017-08-30T19:41:22.400Z,5.43
2017-08-30T19:43:48.549Z,4.93
2017-08-30T19:46:14.659Z,5.37
2017-08-30T19:48:40.805Z,5.57
2017-08-30T19:51:06.927Z,5.97
2017-08-30T19:53:33.067Z,5.60
2017-08-30T19:55:59.183Z,5.87
2017-08-30T19:58:32.268Z,5.77
2017-08-30T20:00:58.384Z,5.47
2017-08-30T20:03:24.512Z,6.20
2017-08-30T20:05:50.592Z,5.43
2017-08-30T20:08:16.692Z,5.93
2017-08-30T20:10:42.792Z,5.17
2017-08-30T20:13:08.898Z,5.80
2017-08-30T20:15:35.037Z,5.70
2017-08-30T20:18:01.159Z,5.57
2017-08-30T20:20:27.270Z,4.90
2017-08-30T20:22:53.482Z,5.50
2017-08-30T20:25:19.562Z,5.20
2017-08-30T20:27:45.634Z,5.63
2017-08-30T20:30:11.717Z,5.60
2017-08-30T20:32:37.806Z,5.13
2017-08-30T20:35:03.980Z,5.13
2017-08-30T20:37:30.132Z,4.70
2017-08-30T20:39:56.282Z,5.07
2017-08-30T20:42:22.384Z,5.10
2017-08-30T20:44:48.480Z,5.53
2017-08-30T20:47:14.596Z,5.13
2017-08-30T20:49:40.731Z,5.80
2017-08-30T20:52:07.705Z,6.33
2017-08-30T20:54:33.885Z,4.83
2017-08-30T20:56:59.961Z,4.90
2017-08-30T20:59:26.086Z,5.20
2017-08-30T21:01:52.164Z,5.67
2017-08-30T21:04:18.258Z,7.17
2017-08-30T21:06:44.381Z,5.97
2017-08-30T21:09:10.476Z,6.00
2017-08-30T21:11:36.534Z,5.90
2017-08-30T21:14:02.614Z,6.07
2017-08-30T21:16:28.738Z,6.40
2017-08-30T21:18:54.834Z,5.97
2017-08-30T21:21:20.954Z,6.27
2017-08-30T21:23:47.092Z,5.10
2017-08-30T21:26:13.173Z,5.90
2017-08-30T21:28:39.259Z,5.77
2017-08-30T21:31:05.398Z,4.90
2017-08-30T21:33:31.484Z,5.33
2017-08-30T21:35:57.572Z,4.60
2017-08-30T21:38:23.678Z,4.70
2017-08-30T21:40:49.762Z,5.23
2017-08-30T21:43:15.873Z,4.23
2017-08-30T21:45:41.980Z,5.47
2017-08-30T21:48:08.090Z,4.80
2017-08-30T21:50:34.193Z,6.60
2017-08-30T21:53:00.504Z,5.27
2017-08-30T21:55:26.607Z,5.97
2017-08-30T21:57:52.677Z,4.83
2017-08-30T22:00:18.828Z,6.17
2017-08-30T22:02:44.912Z,5.77
2017-08-30T22:05:10.998Z,4.73
2017-08-30T22:07:37.077Z,5.27
2017-08-30T22:10:03.150Z,4.87
2017-08-30T22:12:29.226Z,4.80
2017-08-30T22:14:55.322Z,4.77
2017-08-30T22:17:21.426Z,5.60
2017-08-30T22:19:47.518Z,5.20
2017-08-30T22:22:13.631Z,5.60
2017-08-30T22:24:39.714Z,5.00
2017-08-30T22:27:06.240Z,5.40
2017-08-30T22:29:32.332Z,5.90
2017-08-30T22:31:58.435Z,5.77
2017-08-30T22:34:24.528Z,6.57
2017-08-30T22:36:50.606Z,5.07
2017-08-30T22:39:16.737Z,4.33
2017-08-30T22:41:42.860Z,5.80
2017-08-30T22:44:09.016Z,5.80
2017-08-30T22:46:35.068Z,5.07
2017-08-30T22:49:01.133Z,6.20
2017-08-30T22:51:27.248Z,4.80
2017-08-30T22:53:53.349Z,5.33
2017-08-30T22:56:19.450Z,5.10
2017-08-30T22:58:45.496Z,4.33
2017-08-30T23:01:11.596Z,4.40
2017-08-30T23:03:37.709Z,5.17
2017-08-30T23:06:03.819Z,4.97
2017-08-30T23:08:29.884Z,5.13
2017-08-30T23:10:55.978Z,5.07
2017-08-30T23:13:22.057Z,4.50
2017-08-30T23:15:48.126Z,5.70
2017-08-30T23:18:14.208Z,5.30
2017-08-30T23:20:40.304Z,4.70
2017-08-30T23:23:06.414Z,4.83
2017-08-30T23:25:32.493Z,5.63
2017-08-30T23:27:58.636Z,5.23
2017-08-30T23:30:24.777Z,5.43
2017-08-30T23:32:50.864Z,4.40
2017-08-30T23:35:16.946Z,5.20
2017-08-30T23:37:43.094Z,5.00
2017-08-30T23:40:09.173Z,5.50
2017-08-30T23:42:35.264Z,5.60
2017-08-30T23:45:01.338Z,4.57
2017-08-30T23:47:27.466Z,4.40
2017-08-30T23:49:53.610Z,4.83
2017-08-30T23:52:19.711Z,5.23
2017-08-30T23:54:45.817Z,5.03
2017-08-30T23:57:11.892Z,4.40
2017-08-30T23:59:38.782Z,5.50
